Olmstead, Kentucky
Current Conditions -  °F | °C
As of 4:52 PM on Friday 31 Oct 2014 (Local Time) from KCKV Reporting Station
Broken Clouds Broken Clouds  
Wind Chill: 34°   Ceiling: 6000
Heat Index: 43°   Visibility: 10mi
Dew Point: 24°   Wind: 22mph
Humidity: 47%   Direction: 340°NNW
Pressure: 30.15"   Gusts: 41mph
Location:  36.75°N, 87.02°W
Report Text: KCKV 312152Z AUTO 34019G36KT 10SM BKN060 06/M04 A3015 RMK AO2 PK WND 35036/2147 SLP210 T00611044
Loading
Personal Weather Stations






























Interactive Weather Map
Tropical Storm Tracking
New forecast layout! Learn more

10-Day Weather Forecast

Advertisements
Track Severe Weather on mobile